createdAt,value
2023-08-11T00:02:35.599Z,101693.00
2023-08-11T00:05:26.930Z,101696.44
2023-08-11T00:08:19.748Z,101694.72
2023-08-11T00:11:12.575Z,101697.34
2023-08-11T00:14:04.217Z,101706.00
2023-08-11T00:16:55.788Z,101702.50
2023-08-11T00:19:47.500Z,101703.28
2023-08-11T00:22:39.128Z,101701.50
2023-08-11T00:25:32.022Z,101694.03
2023-08-11T00:28:23.052Z,101695.66
2023-08-11T00:31:15.374Z,101704.44
2023-08-11T00:34:08.083Z,101704.34
2023-08-11T00:36:59.472Z,101697.19
2023-08-11T00:39:52.661Z,101701.34
2023-08-11T00:42:45.056Z,101704.78
2023-08-11T00:45:36.491Z,101706.41
2023-08-11T00:48:27.866Z,101702.78
2023-08-11T00:51:20.138Z,101704.38
2023-08-11T00:54:12.135Z,101701.75
2023-08-11T00:57:04.609Z,101712.22
2023-08-11T00:59:57.456Z,101700.97
2023-08-11T01:02:48.818Z,101703.47
2023-08-11T01:05:44.771Z,101701.56
2023-08-11T01:08:39.073Z,101698.13
2023-08-11T01:11:34.593Z,101696.50
2023-08-11T01:14:29.802Z,101686.56
2023-08-11T01:17:23.017Z,101686.94
2023-08-11T01:20:17.190Z,101690.38
2023-08-11T01:23:09.116Z,101689.28
2023-08-11T01:26:02.410Z,101687.66
2023-08-11T01:28:54.703Z,101692.19
2023-08-11T01:31:46.015Z,101692.50
2023-08-11T01:34:37.589Z,101687.63
2023-08-11T01:37:29.144Z,101678.44
2023-08-11T01:40:20.308Z,101679.34
2023-08-11T01:43:15.176Z,101672.47
2023-08-11T01:46:06.513Z,101675.31
2023-08-11T01:48:58.472Z,101684.16
2023-08-11T01:51:49.491Z,101676.38
2023-08-11T01:54:43.535Z,101675.56
2023-08-11T01:57:36.970Z,101675.75
2023-08-11T02:00:31.464Z,101677.03
2023-08-11T02:03:23.444Z,101679.56
2023-08-11T02:06:15.797Z,101683.06
2023-08-11T02:09:09.503Z,101683.44
2023-08-11T02:12:00.697Z,101680.00
2023-08-11T02:14:52.190Z,101681.63
2023-08-11T02:17:45.366Z,101664.91
2023-08-11T02:20:36.931Z,101666.31
2023-08-11T02:23:28.284Z,101665.94
2023-08-11T02:26:19.718Z,101665.28
2023-08-11T02:29:11.105Z,101668.09
2023-08-11T02:32:04.461Z,101669.56
2023-08-11T02:34:57.230Z,101678.41
2023-08-11T02:37:48.334Z,101668.75
2023-08-11T02:40:39.692Z,101662.50
2023-08-11T02:43:31.233Z,101666.03
2023-08-11T02:46:23.680Z,101664.31
2023-08-11T02:49:15.214Z,101663.59
2023-08-11T02:52:08.576Z,101662.97
2023-08-11T02:55:00.188Z,101656.38
2023-08-11T02:57:51.931Z,101653.13
2023-08-11T03:00:43.334Z,101656.94
2023-08-11T03:03:34.934Z,101644.97
2023-08-11T03:06:25.934Z,101654.00
2023-08-11T03:09:18.776Z,101652.66
2023-08-11T03:12:10.594Z,101644.06
2023-08-11T03:15:02.203Z,101639.78
2023-08-11T03:17:55.683Z,101644.31
2023-08-11T03:20:47.060Z,101647.50
2023-08-11T03:23:38.495Z,101642.19
2023-08-11T03:26:31.488Z,101631.69
2023-08-11T03:29:23.050Z,101637.13
2023-08-11T03:32:14.514Z,101636.50
2023-08-11T03:35:06.446Z,101638.53
2023-08-11T03:37:58.176Z,101636.75
2023-08-11T03:40:49.260Z,101630.66
2023-08-11T03:43:41.901Z,101626.31
2023-08-11T03:46:33.364Z,101631.00
2023-08-11T03:49:24.606Z,101625.75
2023-08-11T03:52:16.235Z,101625.09
2023-08-11T03:55:10.731Z,101622.75
2023-08-11T03:58:02.154Z,101624.41
2023-08-11T04:00:55.155Z,101639.84
2023-08-11T04:03:46.466Z,101637.41
2023-08-11T04:06:37.773Z,101642.34
2023-08-11T04:09:29.217Z,101638.09
2023-08-11T04:12:20.487Z,101645.22
2023-08-11T04:15:12.212Z,101639.97
2023-08-11T04:18:04.976Z,101632.84
2023-08-11T04:20:56.155Z,101640.94
2023-08-11T04:23:48.106Z,101638.56
2023-08-11T04:26:39.695Z,101634.22
2023-08-11T04:29:31.008Z,101636.06
2023-08-11T04:32:22.481Z,101629.56
2023-08-11T04:35:15.408Z,101630.72
2023-08-11T04:38:06.883Z,101633.09
2023-08-11T04:40:58.850Z,101634.97
2023-08-11T04:43:50.368Z,101631.53
2023-08-11T04:46:42.037Z,101635.69
2023-08-11T04:49:33.479Z,101637.56
2023-08-11T04:52:25.989Z,101637.31
2023-08-11T04:55:17.570Z,101631.34
2023-08-11T04:58:10.361Z,101640.28
2023-08-11T05:01:04.468Z,101635.19
2023-08-11T05:03:55.670Z,101639.44
2023-08-11T05:06:47.050Z,101637.22
2023-08-11T05:09:39.752Z,101637.38
2023-08-11T05:12:31.403Z,101637.44
2023-08-11T05:15:22.623Z,101640.34
2023-08-11T05:18:14.173Z,101645.69
2023-08-11T05:21:06.812Z,101638.94
2023-08-11T05:23:58.148Z,101641.25
2023-08-11T05:26:50.859Z,101639.59
2023-08-11T05:29:46.161Z,101645.00
2023-08-11T05:32:37.732Z,101641.56
2023-08-11T05:35:30.421Z,101639.91
2023-08-11T05:38:23.679Z,101639.84
2023-08-11T05:41:14.874Z,101642.00
2023-08-11T05:44:07.987Z,101637.84
2023-08-11T05:46:58.989Z,101635.53
2023-08-11T05:49:50.547Z,101638.31
2023-08-11T05:52:41.880Z,101638.47
2023-08-11T05:55:36.177Z,101630.97
2023-08-11T05:58:27.109Z,101628.72
2023-08-11T06:01:19.850Z,101625.28
2023-08-11T06:04:11.039Z,101620.47
2023-08-11T06:07:02.334Z,101623.09
2023-08-11T06:09:53.603Z,101625.06
2023-08-11T06:12:44.970Z,101627.09
2023-08-11T06:15:36.281Z,101627.38
2023-08-11T06:18:28.870Z,101632.97
2023-08-11T06:21:20.195Z,101635.94
2023-08-11T06:24:11.468Z,101644.72
2023-08-11T06:27:02.805Z,101644.66
2023-08-11T06:29:54.003Z,101642.53
2023-08-11T06:32:45.372Z,101642.16
2023-08-11T06:35:38.434Z,101638.69
2023-08-11T06:38:31.732Z,101640.50
2023-08-11T06:41:22.863Z,101642.06
2023-08-11T06:44:14.165Z,101633.56
2023-08-11T06:47:05.558Z,101637.31
2023-08-11T06:49:56.884Z,101641.97
2023-08-11T06:52:49.750Z,101642.72
2023-08-11T06:55:41.155Z,101645.38
2023-08-11T06:58:32.569Z,101645.50
2023-08-11T07:01:24.108Z,101648.66
2023-08-11T07:04:15.412Z,101652.25
2023-08-11T07:07:07.354Z,101650.59
2023-08-11T07:10:03.723Z,101645.09
2023-08-11T07:12:55.341Z,101656.53
2023-08-11T07:15:46.830Z,101660.78
2023-08-11T07:18:38.221Z,101654.22
2023-08-11T07:21:29.420Z,101661.22
2023-08-11T07:24:20.947Z,101663.31
2023-08-11T07:27:13.600Z,101664.34
2023-08-11T07:30:05.648Z,101661.88
2023-08-11T07:32:56.768Z,101669.84
2023-08-11T07:35:48.099Z,101683.03
2023-08-11T07:38:39.451Z,101678.94
2023-08-11T07:41:30.874Z,101674.88
2023-08-11T07:44:23.291Z,101681.22
2023-08-11T07:47:14.578Z,101679.88
2023-08-11T07:50:06.155Z,101677.63
2023-08-11T07:52:57.315Z,101678.06
2023-08-11T07:55:48.863Z,101674.53
2023-08-11T07:58:40.496Z,101680.19
2023-08-11T08:01:33.350Z,101684.88
2023-08-11T08:04:24.950Z,101673.25
2023-08-11T08:07:16.389Z,101671.72
2023-08-11T08:10:09.563Z,101673.94
2023-08-11T08:13:00.857Z,101678.78
2023-08-11T08:15:52.653Z,101681.69
2023-08-11T08:18:45.059Z,101675.69
2023-08-11T08:21:36.472Z,101676.91
2023-08-11T08:24:27.735Z,101681.59
2023-08-11T08:27:24.856Z,101674.66
2023-08-11T08:30:16.268Z,101682.94
2023-08-11T08:33:08.916Z,101674.75
2023-08-11T08:36:01.469Z,101679.28
2023-08-11T08:38:52.759Z,101676.72
2023-08-11T08:41:46.882Z,101676.03
2023-08-11T08:44:39.144Z,101672.78
2023-08-11T08:47:30.855Z,101672.31
2023-08-11T08:50:23.780Z,101664.88
2023-08-11T08:53:16.811Z,101674.28
2023-08-11T08:56:08.753Z,101671.97
2023-08-11T08:59:00.112Z,101674.47
2023-08-11T09:01:52.385Z,101671.75
2023-08-11T09:04:44.515Z,101675.25
2023-08-11T09:07:36.316Z,101675.44
2023-08-11T09:10:30.469Z,101671.31
2023-08-11T09:13:22.427Z,101678.03
2023-08-11T09:16:13.585Z,101667.78
2023-08-11T09:19:05.751Z,101680.19
2023-08-11T09:21:57.186Z,101680.69
2023-08-11T09:24:48.548Z,101669.53
2023-08-11T09:27:41.218Z,101668.19
2023-08-11T09:30:32.825Z,101670.41
2023-08-11T09:33:24.326Z,101666.94
2023-08-11T09:36:15.963Z,101669.06
2023-08-11T09:39:08.228Z,101674.97
2023-08-11T09:41:59.519Z,101675.03
2023-08-11T09:44:55.250Z,101677.66
2023-08-11T09:47:47.135Z,101674.06
2023-08-11T09:50:39.865Z,101678.28
2023-08-11T09:53:31.425Z,101680.09
2023-08-11T09:56:23.883Z,101686.38
2023-08-11T09:59:17.890Z,101679.47
2023-08-11T10:02:14.117Z,101678.94
2023-08-11T10:05:06.964Z,101678.47
2023-08-11T10:07:59.841Z,101683.84
2023-08-11T10:10:51.886Z,101687.63
2023-08-11T10:13:44.000Z,101687.97
2023-08-11T10:16:35.879Z,101689.94
2023-08-11T10:19:28.699Z,101689.41
2023-08-11T10:22:20.400Z,101687.31
2023-08-11T10:25:12.038Z,101691.94
2023-08-11T10:28:03.976Z,101690.47
2023-08-11T10:30:58.655Z,101677.72
2023-08-11T10:33:50.139Z,101681.44
2023-08-11T10:36:43.675Z,101686.13
2023-08-11T10:39:35.589Z,101687.38
2023-08-11T10:42:28.970Z,101678.06
2023-08-11T10:45:20.737Z,101674.72
2023-08-11T10:48:12.663Z,101680.16
2023-08-11T10:51:04.046Z,101680.25
2023-08-11T10:54:02.489Z,101678.78
2023-08-11T10:56:54.066Z,101679.06
2023-08-11T10:59:45.281Z,101666.16
2023-08-11T11:02:36.969Z,101672.22
2023-08-11T11:05:28.124Z,101670.22
2023-08-11T11:08:19.508Z,101670.06
2023-08-11T11:11:11.940Z,101671.41
2023-08-11T11:14:03.575Z,101668.13
2023-08-11T11:16:56.194Z,101666.59
2023-08-11T11:19:48.025Z,101674.63
2023-08-11T11:22:39.191Z,101664.81
2023-08-11T11:25:30.128Z,101662.84
2023-08-11T11:28:22.905Z,101660.34
2023-08-11T11:31:14.747Z,101652.84
2023-08-11T11:34:06.723Z,101660.63
2023-08-11T11:36:58.195Z,101648.94
2023-08-11T11:39:49.600Z,101644.94
2023-08-11T11:42:40.876Z,101644.63
2023-08-11T11:45:33.616Z,101637.16
2023-08-11T11:48:25.691Z,101642.34
2023-08-11T11:51:17.937Z,101635.47
2023-08-11T11:54:09.359Z,101631.84
2023-08-11T11:57:05.063Z,101632.56
2023-08-11T11:59:58.928Z,101631.66
2023-08-11T12:02:51.815Z,101636.53
2023-08-11T12:05:43.225Z,101631.34
2023-08-11T12:08:34.640Z,101634.97
2023-08-11T12:11:26.385Z,101642.34
2023-08-11T12:14:17.744Z,101647.44
2023-08-11T12:17:08.985Z,101642.97
2023-08-11T12:20:02.732Z,101642.84
2023-08-11T12:22:54.211Z,101636.50
2023-08-11T12:25:45.657Z,101620.28
2023-08-11T12:28:37.300Z,101633.03
2023-08-11T12:31:28.481Z,101635.88
2023-08-11T12:34:19.885Z,101634.63
2023-08-11T12:37:15.403Z,101637.44
2023-08-11T12:40:10.883Z,101627.34
2023-08-11T12:43:02.112Z,101615.59
2023-08-11T12:45:53.285Z,101617.22
2023-08-11T12:48:44.597Z,101624.13
2023-08-11T12:51:36.529Z,101619.81
2023-08-11T12:54:29.015Z,101611.78
2023-08-11T12:57:20.217Z,101620.66
2023-08-11T13:00:13.002Z,101608.41
2023-08-11T13:03:04.537Z,101606.47
2023-08-11T13:05:56.049Z,101608.91
2023-08-11T13:08:49.217Z,101609.03
2023-08-11T13:11:42.944Z,101608.91
2023-08-11T13:14:34.319Z,101607.31
2023-08-11T13:17:25.789Z,101602.91
2023-08-11T13:20:17.020Z,101602.72
2023-08-11T13:23:08.487Z,101601.78
2023-08-11T13:25:59.516Z,101594.59
2023-08-11T13:28:52.281Z,101590.41
2023-08-11T13:31:43.586Z,101588.25
2023-08-11T13:34:34.814Z,101584.88
2023-08-11T13:37:26.393Z,101580.09
2023-08-11T13:40:17.996Z,101572.81
2023-08-11T13:43:09.447Z,101576.22
2023-08-11T13:46:02.141Z,101571.03
2023-08-11T13:48:53.505Z,101574.13
2023-08-11T13:51:45.053Z,101581.25
2023-08-11T13:54:36.339Z,101571.53
2023-08-11T13:57:27.674Z,101565.25
2023-08-11T14:00:19.432Z,101558.91
2023-08-11T14:03:12.239Z,101551.81
2023-08-11T14:06:03.330Z,101542.94
2023-08-11T14:08:54.773Z,101541.34
2023-08-11T14:11:46.651Z,101542.25
2023-08-11T14:14:38.205Z,101538.78
2023-08-11T14:17:29.773Z,101537.16
2023-08-11T14:20:22.630Z,101528.22
2023-08-11T14:23:14.268Z,101529.84
2023-08-11T14:26:05.635Z,101530.84
2023-08-11T14:28:57.163Z,101530.22
2023-08-11T14:31:48.496Z,101537.41
2023-08-11T14:34:39.933Z,101525.72
2023-08-11T14:37:32.575Z,101533.50
2023-08-11T14:40:24.017Z,101532.91
2023-08-11T14:43:16.108Z,101527.41
2023-08-11T14:46:07.633Z,101521.19
2023-08-11T14:48:59.070Z,101522.06
2023-08-11T14:51:50.601Z,101516.91
2023-08-11T14:54:43.527Z,101518.72
2023-08-11T14:57:34.713Z,101518.81
2023-08-11T15:00:26.248Z,101514.53
2023-08-11T15:03:17.585Z,101512.75
2023-08-11T15:06:08.737Z,101511.00
2023-08-11T15:09:00.140Z,101505.66
2023-08-11T15:11:52.862Z,101504.59
2023-08-11T15:14:44.253Z,101501.06
2023-08-11T15:17:35.628Z,101495.81
2023-08-11T15:20:26.956Z,101503.88
2023-08-11T15:23:18.170Z,101491.38
2023-08-11T15:26:10.830Z,101489.63
2023-08-11T15:29:03.249Z,101483.38
2023-08-11T15:31:54.947Z,101480.75
2023-08-11T15:34:46.265Z,101477.13
2023-08-11T15:37:37.654Z,101477.19
2023-08-11T15:40:28.757Z,101472.91
2023-08-11T15:43:20.142Z,101470.22
2023-08-11T15:46:12.725Z,101475.50
2023-08-11T15:49:04.173Z,101479.00
2023-08-11T15:51:55.557Z,101473.66
2023-08-11T15:54:46.649Z,101475.28
2023-08-11T15:57:37.907Z,101475.25
2023-08-11T16:00:29.318Z,101464.69
2023-08-11T16:03:22.934Z,101460.19
2023-08-11T16:06:14.180Z,101460.22
2023-08-11T16:09:05.965Z,101460.28
2023-08-11T16:11:57.170Z,101469.22
2023-08-11T16:14:48.529Z,101462.06
2023-08-11T16:17:39.745Z,101460.13
2023-08-11T16:20:32.432Z,101457.41
2023-08-11T16:23:23.772Z,101447.59
2023-08-11T16:26:14.988Z,101444.84
2023-08-11T16:29:08.744Z,101445.91
2023-08-11T16:32:00.251Z,101446.81
2023-08-11T16:34:51.257Z,101452.16
2023-08-11T16:37:44.028Z,101457.56
2023-08-11T16:40:35.223Z,101459.38
2023-08-11T16:43:26.428Z,101454.00
2023-08-11T16:46:19.448Z,101461.03
2023-08-11T16:49:11.140Z,101458.19
2023-08-11T16:52:02.468Z,101451.13
2023-08-11T16:54:55.121Z,101457.25
2023-08-11T16:57:46.690Z,101457.91
2023-08-11T17:00:37.758Z,101460.44
2023-08-11T17:03:30.162Z,101464.13
2023-08-11T17:06:22.189Z,101454.34
2023-08-11T17:09:13.426Z,101459.56
2023-08-11T17:12:06.432Z,101451.34
2023-08-11T17:14:57.767Z,101448.59
2023-08-11T17:17:49.119Z,101459.41
2023-08-11T17:20:40.514Z,101454.00
2023-08-11T17:23:33.020Z,101453.91
2023-08-11T17:26:24.410Z,101454.09
2023-08-11T17:29:16.869Z,101453.91
2023-08-11T17:32:08.586Z,101452.75
2023-08-11T17:35:00.126Z,101452.72
2023-08-11T17:37:51.224Z,101450.91
2023-08-11T17:40:42.952Z,101446.34
2023-08-11T17:43:34.371Z,101445.56
2023-08-11T17:46:28.087Z,101449.09
2023-08-11T17:49:19.288Z,101441.84
2023-08-11T17:52:10.993Z,101444.41
2023-08-11T17:55:02.769Z,101442.63
2023-08-11T17:57:54.390Z,101442.63
2023-08-11T18:00:45.437Z,101433.56
2023-08-11T18:03:38.243Z,101442.28
2023-08-11T18:06:29.774Z,101442.09
2023-08-11T18:09:20.827Z,101433.94
2023-08-11T18:12:12.423Z,101434.66
2023-08-11T18:15:04.070Z,101438.13
2023-08-11T18:17:55.409Z,101442.44
2023-08-11T18:20:48.118Z,101445.00
2023-08-11T18:23:39.559Z,101443.97
2023-08-11T18:26:31.507Z,101446.50
2023-08-11T18:29:23.157Z,101448.16
2023-08-11T18:32:14.264Z,101450.69
2023-08-11T18:35:06.266Z,101448.81
2023-08-11T18:37:59.064Z,101454.88
2023-08-11T18:40:50.130Z,101459.16
2023-08-11T18:43:42.116Z,101452.88
2023-08-11T18:46:35.161Z,101443.09
2023-08-11T18:49:28.218Z,101446.56
2023-08-11T18:52:19.541Z,101441.16
2023-08-11T18:55:12.462Z,101437.47
2023-08-11T18:58:04.587Z,101436.56
2023-08-11T19:00:55.637Z,101435.56
2023-08-11T19:03:46.999Z,101436.38
2023-08-11T19:06:40.876Z,101451.28
2023-08-11T19:09:32.244Z,101440.53
2023-08-11T19:12:24.965Z,101447.50
2023-08-11T19:15:16.156Z,101446.50
2023-08-11T19:18:08.051Z,101441.00
2023-08-11T19:20:59.422Z,101440.00
2023-08-11T19:23:50.774Z,101427.50
2023-08-11T19:26:42.559Z,101430.09
2023-08-11T19:29:35.103Z,101421.16
2023-08-11T19:32:26.406Z,101422.00
2023-08-11T19:35:17.668Z,101420.22
2023-08-11T19:38:09.000Z,101422.84
2023-08-11T19:41:00.484Z,101426.28
2023-08-11T19:43:51.804Z,101425.28
2023-08-11T19:46:46.799Z,101432.34
2023-08-11T19:49:40.682Z,101427.88
2023-08-11T19:52:31.755Z,101428.75
2023-08-11T19:55:23.053Z,101428.69
2023-08-11T19:58:17.683Z,101430.38
2023-08-11T20:01:09.141Z,101426.78
2023-08-11T20:04:01.730Z,101426.69
2023-08-11T20:06:52.870Z,101423.16
2023-08-11T20:09:44.155Z,101426.66
2023-08-11T20:12:42.063Z,101415.88
2023-08-11T20:15:33.459Z,101409.59
2023-08-11T20:18:24.876Z,101401.59
2023-08-11T20:21:17.785Z,101410.44
2023-08-11T20:24:09.111Z,101404.25
2023-08-11T20:27:00.521Z,101405.16
2023-08-11T20:29:51.906Z,101400.66
2023-08-11T20:32:43.439Z,101393.41
2023-08-11T20:35:34.842Z,101389.78
2023-08-11T20:38:28.283Z,101398.59
2023-08-11T20:41:19.558Z,101394.94
2023-08-11T20:44:11.259Z,101400.16
2023-08-11T20:47:02.691Z,101390.34
2023-08-11T20:49:53.892Z,101394.69
2023-08-11T20:52:45.339Z,101397.22
2023-08-11T20:55:38.299Z,101394.47
2023-08-11T20:58:29.441Z,101399.66
2023-08-11T21:01:20.812Z,101390.75
2023-08-11T21:04:12.858Z,101389.84
2023-08-11T21:07:04.413Z,101391.47
2023-08-11T21:09:55.879Z,101390.41
2023-08-11T21:12:49.736Z,101390.31
2023-08-11T21:15:41.370Z,101391.91
2023-08-11T21:18:33.156Z,101388.19
2023-08-11T21:21:24.501Z,101384.47
2023-08-11T21:24:15.932Z,101376.41
2023-08-11T21:27:07.283Z,101381.66
2023-08-11T21:29:59.914Z,101380.78
2023-08-11T21:32:52.736Z,101380.66
2023-08-11T21:35:44.114Z,101384.09
2023-08-11T21:38:35.612Z,101381.44
2023-08-11T21:41:26.975Z,101380.53
2023-08-11T21:44:19.250Z,101387.47
2023-08-11T21:47:11.692Z,101383.03
2023-08-11T21:50:03.385Z,101383.00
2023-08-11T21:52:55.093Z,101387.28
2023-08-11T21:55:46.774Z,101381.88
2023-08-11T21:58:39.555Z,101386.06
2023-08-11T22:01:30.723Z,101391.31
2023-08-11T22:04:27.023Z,101388.50
2023-08-11T22:07:18.568Z,101383.09
2023-08-11T22:10:10.719Z,101373.28
2023-08-11T22:13:02.150Z,101376.69
2023-08-11T22:15:53.866Z,101369.53
2023-08-11T22:18:48.208Z,101372.97
2023-08-11T22:21:41.141Z,101373.81
2023-08-11T22:24:41.133Z,101371.88
2023-08-11T22:27:33.276Z,101371.78
2023-08-11T22:30:24.398Z,101375.09
2023-08-11T22:33:15.896Z,101372.31
2023-08-11T22:36:07.325Z,101362.50
2023-08-11T22:38:59.873Z,101365.94
2023-08-11T22:41:52.522Z,101374.75
2023-08-11T22:44:43.677Z,101371.97
2023-08-11T22:47:35.055Z,101371.81
2023-08-11T22:50:26.308Z,101369.03
2023-08-11T22:53:19.673Z,101371.56
2023-08-11T22:56:12.593Z,101368.00
2023-08-11T22:59:05.418Z,101360.94
2023-08-11T23:01:56.552Z,101368.00
2023-08-11T23:04:47.784Z,101374.13
2023-08-11T23:07:42.456Z,101370.63
2023-08-11T23:10:36.027Z,101367.09
2023-08-11T23:13:28.832Z,101359.22
2023-08-11T23:16:20.968Z,101357.47
2023-08-11T23:19:12.509Z,101359.25
2023-08-11T23:22:03.818Z,101361.97
2023-08-11T23:24:55.335Z,101365.56
2023-08-11T23:27:46.790Z,101363.78
2023-08-11T23:30:39.506Z,101360.16
2023-08-11T23:33:30.844Z,101361.84
2023-08-11T23:36:22.154Z,101358.34
2023-08-11T23:39:14.172Z,101358.31
2023-08-11T23:42:05.681Z,101350.31
2023-08-11T23:44:57.227Z,101349.38
2023-08-11T23:47:50.079Z,101351.09
2023-08-11T23:50:41.371Z,101351.94
2023-08-11T23:53:32.764Z,101354.53
2023-08-11T23:56:24.153Z,101348.28
2023-08-11T23:59:15.574Z,101343.78
